createdAt,value
2022-09-07T09:21:41.143Z,99.90
2022-09-07T09:24:19.598Z,99.90
2022-09-07T09:26:53.160Z,99.90
2022-09-07T09:29:22.861Z,99.90
2022-09-07T09:31:50.076Z,99.10
2022-09-07T09:34:23.768Z,99.80
2022-09-07T09:36:54.552Z,99.90
2022-09-07T09:39:27.581Z,98.20
2022-09-07T09:41:58.384Z,98.40
2022-09-07T09:44:33.706Z,97.40
2022-09-07T09:49:50.024Z,97.50
2022-09-07T09:52:29.782Z,97.80
2022-09-07T09:55:17.174Z,98.40
2022-09-07T10:04:01.105Z,98.00
2022-09-07T10:06:29.710Z,98.50
2022-09-07T10:09:02.297Z,98.90
2022-09-07T10:12:07.446Z,98.40
2022-09-07T10:14:45.114Z,99.00
2022-09-07T10:17:38.796Z,98.80
2022-09-07T10:20:17.538Z,98.90
2022-09-07T10:22:50.898Z,99.20
2022-09-07T10:25:39.622Z,98.90
2022-09-07T10:28:16.341Z,99.10
2022-09-07T10:30:54.575Z,99.30
2022-09-07T10:33:41.632Z,98.50
2022-09-07T10:36:17.558Z,98.60
2022-09-07T10:39:06.916Z,98.70
2022-09-07T10:41:54.366Z,98.80
2022-09-07T10:44:54.263Z,97.60
2022-09-07T10:47:47.844Z,96.70
2022-09-07T10:51:05.051Z,98.00
2022-09-07T10:53:47.232Z,98.40
2022-09-07T10:56:36.882Z,98.30
2022-09-07T11:00:07.531Z,98.50
2022-09-07T11:02:41.926Z,98.10
2022-09-07T11:05:31.064Z,98.30
2022-09-07T11:08:00.322Z,98.30
2022-09-07T11:10:29.991Z,98.40
2022-09-07T11:13:00.209Z,97.60
2022-09-07T11:15:33.358Z,97.80
2022-09-07T11:18:08.457Z,98.00
2022-09-07T11:20:45.475Z,97.40
2022-09-07T11:23:20.764Z,96.20
2022-09-07T11:26:20.916Z,95.10
2022-09-07T11:29:32.156Z,94.90
2022-09-07T11:32:10.007Z,95.70
2022-09-07T11:34:40.913Z,94.90
2022-09-07T11:37:15.584Z,94.80
2022-09-07T11:39:53.661Z,94.50
2022-09-07T11:42:48.976Z,94.30
2022-09-07T11:45:23.599Z,94.30
2022-09-07T11:48:00.018Z,93.30
2022-09-07T11:50:31.990Z,93.70
2022-09-07T11:53:09.407Z,93.30
2022-09-07T11:55:40.375Z,93.90
2022-09-07T11:58:33.971Z,93.70
2022-09-07T12:01:15.898Z,93.70
2022-09-07T12:04:15.364Z,92.60
2022-09-07T12:06:48.158Z,92.10
2022-09-07T12:09:30.806Z,92.80
2022-09-07T12:12:00.177Z,92.00
2022-09-07T12:14:57.271Z,92.30
2022-09-07T12:17:34.625Z,91.00
2022-09-07T12:20:21.377Z,90.30
2022-09-07T12:23:17.202Z,91.20
2022-09-07T12:25:46.565Z,90.30
2022-09-07T12:28:25.365Z,90.90
2022-09-07T12:31:06.068Z,90.90
2022-09-07T12:33:36.567Z,90.30
2022-09-07T12:36:26.174Z,90.40
2022-09-07T12:39:20.731Z,88.60
2022-09-07T12:42:31.932Z,89.20
2022-09-07T12:44:38.376Z,90.50
2022-09-07T12:47:12.637Z,89.20
2022-09-07T12:49:59.318Z,88.10
2022-09-07T12:52:52.767Z,88.40
2022-09-07T12:59:04.323Z,87.80
2022-09-07T13:01:59.079Z,86.70
2022-09-07T13:04:41.230Z,86.10
2022-09-07T13:07:41.245Z,86.80
2022-09-07T13:10:34.378Z,85.70
2022-09-07T13:13:05.611Z,85.80
2022-09-07T13:16:01.762Z,84.70
2022-09-07T13:18:28.772Z,85.10
2022-09-07T13:21:08.763Z,83.40
2022-09-07T13:23:45.755Z,86.70
2022-09-07T13:26:53.542Z,86.50
2022-09-07T13:29:36.705Z,85.90
2022-09-07T13:33:08.089Z,84.10
2022-09-07T13:35:24.409Z,85.90
2022-09-07T13:38:01.682Z,85.00
2022-09-07T13:40:37.200Z,83.00
2022-09-07T13:43:05.352Z,85.10
2022-09-07T13:45:46.770Z,84.70
2022-09-07T13:48:47.743Z,87.20
2022-09-07T13:51:24.796Z,87.10
2022-09-07T13:54:28.807Z,84.40
2022-09-07T13:57:10.161Z,83.30
2022-09-07T13:59:37.257Z,88.70
2022-09-07T14:02:19.882Z,83.20
2022-09-07T14:04:54.841Z,83.10
2022-09-07T14:07:26.028Z,82.40
2022-09-07T14:10:09.223Z,83.60
2022-09-07T14:12:44.538Z,80.60
2022-09-07T14:15:20.108Z,79.20
2022-09-07T14:17:48.480Z,79.70
2022-09-07T14:20:17.187Z,78.20
2022-09-07T14:22:46.699Z,80.90
2022-09-07T14:25:18.728Z,80.20
2022-09-07T14:27:47.276Z,81.90
2022-09-07T14:30:28.152Z,79.30
2022-09-07T14:33:01.654Z,81.60
2022-09-07T14:35:33.550Z,82.40
2022-09-07T14:39:04.054Z,79.90
2022-09-07T14:41:13.717Z,79.20
2022-09-07T14:43:53.252Z,80.90
2022-09-07T14:46:26.834Z,82.00
2022-09-07T14:48:56.899Z,83.00
2022-09-07T14:51:35.043Z,82.50
2022-09-07T14:54:05.625Z,83.10
2022-09-07T14:56:34.976Z,80.30
2022-09-07T14:59:01.691Z,82.90
2022-09-07T15:01:43.887Z,81.80
2022-09-07T15:04:19.215Z,83.30
2022-09-07T15:07:02.315Z,84.60
2022-09-07T15:09:37.598Z,84.30
2022-09-07T15:12:17.688Z,84.00
2022-09-07T15:14:44.491Z,84.50
2022-09-07T15:17:45.972Z,82.70
2022-09-07T15:20:37.374Z,82.30
2022-09-07T15:23:15.933Z,84.50
2022-09-07T15:25:50.265Z,84.30
2022-09-07T15:31:43.389Z,85.80
2022-09-07T15:34:13.860Z,85.40
2022-09-07T15:36:43.536Z,84.80
2022-09-07T15:39:29.555Z,83.50
2022-09-07T15:41:57.220Z,84.50
2022-09-07T15:44:26.558Z,85.40
2022-09-07T15:49:49.227Z,87.00
2022-09-07T15:52:17.700Z,86.50
2022-09-07T15:54:44.625Z,86.00
2022-09-07T15:59:58.744Z,85.50
2022-09-07T16:05:13.118Z,85.00
2022-09-07T16:10:31.163Z,84.30
2022-09-07T16:13:02.820Z,85.40
2022-09-07T16:15:45.095Z,87.40
2022-09-07T16:18:17.086Z,85.40
2022-09-07T16:20:44.666Z,85.70
2022-09-07T16:23:14.603Z,85.80
2022-09-07T16:25:43.302Z,86.50
2022-09-07T16:28:10.707Z,85.50
2022-09-07T16:30:40.650Z,88.30
2022-09-07T16:33:07.849Z,87.80
2022-09-07T16:35:37.899Z,87.60
2022-09-07T16:40:51.499Z,86.70
2022-09-07T16:43:19.119Z,91.60
2022-09-07T16:48:34.542Z,88.00
2022-09-07T16:51:02.951Z,86.80
2022-09-07T16:53:31.575Z,89.80
2022-09-07T16:56:09.182Z,90.30
2022-09-07T16:58:39.072Z,91.50
2022-09-07T17:01:07.423Z,92.10
2022-09-07T17:03:35.735Z,91.70
2022-09-07T17:06:03.595Z,91.20
2022-09-07T17:08:30.345Z,91.50
2022-09-07T17:11:10.647Z,91.30
2022-09-07T17:13:38.744Z,91.40
2022-09-07T17:16:07.893Z,91.90
2022-09-07T17:21:22.419Z,93.60
2022-09-07T17:23:54.766Z,93.70
2022-09-07T17:26:26.490Z,93.50
2022-09-07T17:28:56.569Z,94.20
2022-09-07T17:34:13.379Z,95.30
2022-09-07T17:36:40.566Z,95.20
2022-09-07T17:39:16.693Z,95.60
2022-09-07T17:41:44.269Z,95.30
2022-09-07T17:44:11.259Z,96.80
2022-09-07T17:46:38.151Z,97.60
2022-09-07T17:49:07.930Z,98.00
2022-09-07T17:51:35.947Z,98.80
2022-09-07T17:54:09.684Z,98.70
2022-09-07T17:56:37.331Z,98.40
2022-09-07T18:01:51.141Z,99.30
2022-09-07T18:04:17.894Z,99.80
2022-09-07T18:06:44.594Z,99.70
2022-09-07T18:09:13.929Z,99.90
2022-09-07T18:11:47.319Z,99.90
2022-09-07T18:14:15.216Z,99.90
2022-09-07T18:16:43.877Z,99.90
2022-09-07T18:19:12.088Z,99.90
2022-09-07T18:21:41.819Z,99.90
2022-09-07T18:24:14.008Z,99.90
2022-09-07T18:26:40.875Z,99.90
2022-09-07T18:29:25.969Z,99.90
2022-09-07T18:31:54.641Z,99.90
2022-09-07T18:34:21.655Z,99.90
2022-09-07T18:36:48.379Z,99.90
2022-09-07T18:39:15.264Z,99.90
2022-09-07T18:41:42.179Z,99.90
2022-09-07T18:46:55.820Z,99.90
2022-09-07T18:49:22.513Z,99.90
2022-09-07T18:54:36.007Z,99.90
2022-09-07T18:57:02.709Z,99.90
2022-09-07T18:59:29.856Z,99.90
2022-09-07T19:02:01.465Z,99.90
2022-09-07T19:07:17.935Z,99.90
2022-09-07T19:09:44.599Z,99.90
2022-09-07T19:12:11.282Z,99.90
2022-09-07T19:14:37.960Z,99.90
2022-09-07T19:17:04.841Z,99.90
2022-09-07T19:19:32.879Z,99.90
2022-09-07T19:22:01.519Z,99.90
2022-09-07T19:24:28.562Z,99.90
2022-09-07T19:27:00.000Z,99.90
2022-09-07T19:29:27.639Z,99.90
2022-09-07T19:32:11.900Z,99.90
2022-09-07T19:34:43.367Z,99.90
2022-09-07T19:37:11.918Z,99.90
2022-09-07T19:39:39.151Z,99.90
2022-09-07T19:42:09.160Z,99.90
2022-09-07T19:44:36.302Z,99.90
2022-09-07T19:47:03.278Z,99.90
2022-09-07T19:49:33.181Z,99.90
2022-09-07T19:52:04.429Z,99.90
2022-09-07T19:54:31.535Z,99.90
2022-09-07T19:56:58.769Z,99.90
2022-09-07T19:59:25.451Z,99.90
2022-09-07T20:01:53.754Z,99.90
2022-09-07T20:04:23.536Z,99.90
2022-09-07T20:06:51.634Z,99.90
2022-09-07T20:09:20.529Z,99.90
2022-09-07T20:11:48.303Z,99.90
2022-09-07T20:14:19.025Z,99.90
2022-09-07T20:16:45.897Z,99.90
2022-09-07T20:19:14.853Z,99.90
2022-09-07T20:21:42.187Z,99.90
2022-09-07T20:24:14.140Z,99.90
2022-09-07T20:26:41.298Z,99.90
2022-09-07T20:31:56.587Z,99.90
2022-09-07T20:34:26.948Z,99.90
2022-09-07T20:36:58.223Z,99.90
2022-09-07T20:39:25.550Z,99.90
2022-09-07T20:41:52.438Z,99.90
2022-09-07T20:44:22.706Z,99.90
2022-09-07T20:46:49.618Z,99.90
2022-09-07T20:49:16.538Z,99.90
2022-09-07T20:51:46.188Z,99.90
2022-09-07T20:54:16.806Z,99.90
2022-09-07T20:56:43.797Z,99.90
2022-09-07T20:59:12.415Z,99.90
2022-09-07T21:01:42.266Z,99.90
2022-09-07T21:04:13.834Z,99.90
2022-09-07T21:06:40.560Z,99.90
2022-09-07T21:09:08.055Z,99.90
2022-09-07T21:11:37.774Z,99.90
2022-09-07T21:14:11.454Z,99.90
2022-09-07T21:16:42.762Z,99.90
2022-09-07T21:19:13.745Z,99.90
2022-09-07T21:21:44.038Z,99.90
2022-09-07T21:24:19.841Z,99.90
2022-09-07T21:26:47.706Z,99.90
2022-09-07T21:29:20.848Z,99.90
2022-09-07T21:31:48.085Z,99.90
2022-09-07T21:34:15.756Z,99.90
2022-09-07T21:36:42.627Z,99.90
2022-09-07T21:39:13.714Z,99.90
2022-09-07T21:41:45.113Z,99.90
2022-09-07T21:44:16.970Z,99.90
2022-09-07T21:46:44.505Z,99.90
2022-09-07T21:49:11.382Z,99.90
2022-09-07T21:51:38.528Z,99.90
2022-09-07T21:54:05.391Z,99.90
2022-09-07T21:56:32.449Z,99.90
2022-09-07T21:59:01.394Z,99.90
2022-09-07T22:01:29.989Z,99.90
2022-09-07T22:03:59.192Z,99.90
2022-09-07T22:06:27.622Z,99.90
2022-09-07T22:08:55.205Z,99.90
2022-09-07T22:11:23.807Z,99.90
2022-09-07T22:13:57.769Z,99.90
2022-09-07T22:16:24.784Z,99.90
2022-09-07T22:18:52.265Z,99.90
2022-09-07T22:21:22.213Z,99.90
2022-09-07T22:23:51.202Z,99.90
2022-09-07T22:26:20.484Z,99.90
2022-09-07T22:28:47.701Z,99.90
2022-09-07T22:31:17.260Z,99.90
2022-09-07T22:33:45.246Z,99.90
2022-09-07T22:36:18.037Z,99.90
2022-09-07T22:38:46.103Z,99.90
2022-09-07T22:41:16.448Z,99.90
2022-09-07T22:43:44.172Z,99.90
2022-09-07T22:46:11.776Z,99.90
2022-09-07T22:48:39.127Z,99.90
2022-09-07T22:51:06.856Z,99.90
2022-09-07T22:53:36.028Z,99.90
2022-09-07T22:56:07.291Z,99.90
2022-09-07T22:58:34.365Z,99.90
2022-09-07T23:01:01.221Z,99.90
2022-09-07T23:03:29.384Z,99.90
2022-09-07T23:05:57.036Z,99.90
2022-09-07T23:08:24.640Z,99.90
2022-09-07T23:10:51.936Z,99.90
2022-09-07T23:13:19.528Z,99.90
2022-09-07T23:15:47.188Z,99.90
2022-09-07T23:18:18.970Z,99.90
2022-09-07T23:20:46.312Z,99.90
2022-09-07T23:23:13.364Z,99.90
2022-09-07T23:25:42.188Z,99.90
2022-09-07T23:28:12.434Z,99.90
2022-09-07T23:30:40.547Z,99.90
2022-09-07T23:33:07.657Z,99.90
2022-09-07T23:35:34.403Z,99.90
2022-09-07T23:38:01.067Z,99.90
2022-09-07T23:40:30.294Z,99.90
2022-09-07T23:42:57.043Z,99.90
2022-09-07T23:45:24.418Z,99.90
2022-09-07T23:47:51.380Z,99.90
2022-09-07T23:50:18.206Z,99.90
2022-09-07T23:52:45.130Z,99.90
2022-09-07T23:55:12.327Z,99.90
2022-09-07T23:57:39.554Z,99.90
